ENVD

Vadsø Airport

Vadsø, Norway
METAR ENVD 160550Z 10007KT CAVOK 10/07 Q1014
Observed Flight Rules
Aug-16 @ 05:50 UTC (25 minutes ago) Visual Flight Rules
Wind Visibility Clouds
100° at 7 knots 10,000+ meters
  • Clear skies
Temperatures Readings
Current 10°C / 50°F
Dewpoint 7°C / 45°F
Humidity 82%
Altimeter 29.94" Hg
Pressure 1014 hPa
Elevation 39
METAR ENVD 160550Z 10007KT CAVOK 10/07 Q1014
Observed Flight Rules
Aug-16 @ 05:50 UTC
(25 minutes ago)
VFR
Wind Visibility
100° at 7 knots 10,000+ meters
Clouds
  • Clear skies
Temperature Dewpoint
10°C / 50°F 7°C / 45°F
Humidity Altimeter Pressure
82% 29.94" Hg 1014 hPa